sensor_id;sensor_type;location;lat;lon;timestamp;temperature;humidity
4749;DHT22;2388;53.582;9.962;2023-07-13T00:00:19;17.70;99.90
4749;DHT22;2388;53.582;9.962;2023-07-13T00:02:45;17.60;99.90
4749;DHT22;2388;53.582;9.962;2023-07-13T00:05:10;17.70;99.90
4749;DHT22;2388;53.582;9.962;2023-07-13T00:07:36;17.60;99.90
4749;DHT22;2388;53.582;9.962;2023-07-13T00:10:03;17.60;99.90
4749;DHT22;2388;53.582;9.962;2023-07-13T00:12:35;17.60;99.90
4749;DHT22;2388;53.582;9.962;2023-07-13T00:15:06;17.50;99.90
4749;DHT22;2388;53.582;9.962;2023-07-13T00:17:32;17.60;99.90
4749;DHT22;2388;53.582;9.962;2023-07-13T00:19:58;17.60;99.90
4749;DHT22;2388;53.582;9.962;2023-07-13T00:22:25;17.60;99.90
4749;DHT22;2388;53.582;9.962;2023-07-13T00:24:54;17.60;99.90
4749;DHT22;2388;53.582;9.962;2023-07-13T00:27:23;17.60;99.90
4749;DHT22;2388;53.582;9.962;2023-07-13T00:29:49;17.60;99.90
4749;DHT22;2388;53.582;9.962;2023-07-13T00:32:14;17.50;99.90
4749;DHT22;2388;53.582;9.962;2023-07-13T00:34:40;17.50;99.90
4749;DHT22;2388;53.582;9.962;2023-07-13T00:37:06;17.50;99.90
4749;DHT22;2388;53.582;9.962;2023-07-13T00:39:33;17.40;99.90
4749;DHT22;2388;53.582;9.962;2023-07-13T00:42:00;17.40;99.90
4749;DHT22;2388;53.582;9.962;2023-07-13T00:44:25;17.40;99.90
4749;DHT22;2388;53.582;9.962;2023-07-13T00:46:51;17.40;99.90
4749;DHT22;2388;53.582;9.962;2023-07-13T00:49:19;17.30;99.90
4749;DHT22;2388;53.582;9.962;2023-07-13T00:51:50;17.30;99.90
4749;DHT22;2388;53.582;9.962;2023-07-13T00:54:24;17.20;99.90
4749;DHT22;2388;53.582;9.962;2023-07-13T00:56:53;17.20;99.90
4749;DHT22;2388;53.582;9.962;2023-07-13T00:59:21;17.20;99.90
4749;DHT22;2388;53.582;9.962;2023-07-13T01:01:47;17.30;99.90
4749;DHT22;2388;53.582;9.962;2023-07-13T01:04:13;17.20;99.90
4749;DHT22;2388;53.582;9.962;2023-07-13T01:06:40;17.30;99.90
4749;DHT22;2388;53.582;9.962;2023-07-13T01:09:07;17.30;99.90
4749;DHT22;2388;53.582;9.962;2023-07-13T01:11:33;17.30;99.90
4749;DHT22;2388;53.582;9.962;2023-07-13T01:14:00;17.30;99.90
4749;DHT22;2388;53.582;9.962;2023-07-13T01:16:31;17.30;99.90
4749;DHT22;2388;53.582;9.962;2023-07-13T01:18:57;17.30;99.90
4749;DHT22;2388;53.582;9.962;2023-07-13T01:21:28;17.30;99.90
4749;DHT22;2388;53.582;9.962;2023-07-13T01:23:54;17.30;99.90
4749;DHT22;2388;53.582;9.962;2023-07-13T01:26:19;17.30;99.90
4749;DHT22;2388;53.582;9.962;2023-07-13T01:28:45;17.30;99.90
4749;DHT22;2388;53.582;9.962;2023-07-13T01:31:11;17.30;99.90
4749;DHT22;2388;53.582;9.962;2023-07-13T01:33:38;17.30;99.90
4749;DHT22;2388;53.582;9.962;2023-07-13T01:36:08;17.30;99.90
4749;DHT22;2388;53.582;9.962;2023-07-13T01:38:35;17.30;99.90
4749;DHT22;2388;53.582;9.962;2023-07-13T01:41:01;17.20;99.90
4749;DHT22;2388;53.582;9.962;2023-07-13T01:43:26;17.20;99.90
4749;DHT22;2388;53.582;9.962;2023-07-13T01:45:52;17.20;99.90
4749;DHT22;2388;53.582;9.962;2023-07-13T01:48:18;17.20;99.90
4749;DHT22;2388;53.582;9.962;2023-07-13T01:50:43;17.20;99.90
4749;DHT22;2388;53.582;9.962;2023-07-13T01:53:09;17.10;99.90
4749;DHT22;2388;53.582;9.962;2023-07-13T01:55:35;17.10;99.90
4749;DHT22;2388;53.582;9.962;2023-07-13T01:58:01;17.20;99.90
4749;DHT22;2388;53.582;9.962;2023-07-13T02:00:26;17.10;99.90
4749;DHT22;2388;53.582;9.962;2023-07-13T02:02:52;17.10;99.90
4749;DHT22;2388;53.582;9.962;2023-07-13T02:05:17;17.10;99.90
4749;DHT22;2388;53.582;9.962;2023-07-13T02:07:43;17.10;99.90
4749;DHT22;2388;53.582;9.962;2023-07-13T02:10:10;17.10;99.90
4749;DHT22;2388;53.582;9.962;2023-07-13T02:12:36;17.10;99.90
4749;DHT22;2388;53.582;9.962;2023-07-13T02:15:03;17.10;99.90
4749;DHT22;2388;53.582;9.962;2023-07-13T02:17:29;17.00;99.90
4749;DHT22;2388;53.582;9.962;2023-07-13T02:19:54;17.00;99.90
4749;DHT22;2388;53.582;9.962;2023-07-13T02:22:21;17.00;99.90
4749;DHT22;2388;53.582;9.962;2023-07-13T02:24:47;17.00;99.90
4749;DHT22;2388;53.582;9.962;2023-07-13T02:27:12;17.00;99.90
4749;DHT22;2388;53.582;9.962;2023-07-13T02:29:38;17.00;99.90
4749;DHT22;2388;53.582;9.962;2023-07-13T02:32:04;17.00;99.90
4749;DHT22;2388;53.582;9.962;2023-07-13T02:34:29;17.00;99.90
4749;DHT22;2388;53.582;9.962;2023-07-13T02:36:55;17.00;99.90
4749;DHT22;2388;53.582;9.962;2023-07-13T02:39:20;17.00;99.90
4749;DHT22;2388;53.582;9.962;2023-07-13T02:41:46;16.90;99.90
4749;DHT22;2388;53.582;9.962;2023-07-13T02:44:13;16.90;99.90
4749;DHT22;2388;53.582;9.962;2023-07-13T02:46:39;16.90;99.90
4749;DHT22;2388;53.582;9.962;2023-07-13T02:49:05;16.80;99.90
4749;DHT22;2388;53.582;9.962;2023-07-13T02:51:31;16.80;99.90
4749;DHT22;2388;53.582;9.962;2023-07-13T02:54:02;16.80;99.90
4749;DHT22;2388;53.582;9.962;2023-07-13T02:56:29;16.80;99.90
4749;DHT22;2388;53.582;9.962;2023-07-13T02:58:56;16.80;99.90
4749;DHT22;2388;53.582;9.962;2023-07-13T03:01:22;16.80;99.90
4749;DHT22;2388;53.582;9.962;2023-07-13T03:03:48;16.80;99.90
4749;DHT22;2388;53.582;9.962;2023-07-13T03:06:15;16.80;99.90
4749;DHT22;2388;53.582;9.962;2023-07-13T03:08:41;16.80;99.90
4749;DHT22;2388;53.582;9.962;2023-07-13T03:11:12;16.80;99.90
4749;DHT22;2388;53.582;9.962;2023-07-13T03:13:39;16.80;99.90
4749;DHT22;2388;53.582;9.962;2023-07-13T03:16:05;16.70;99.90
4749;DHT22;2388;53.582;9.962;2023-07-13T03:18:31;16.70;99.90
4749;DHT22;2388;53.582;9.962;2023-07-13T03:20:57;16.80;99.90
4749;DHT22;2388;53.582;9.962;2023-07-13T03:23:23;16.80;99.90
4749;DHT22;2388;53.582;9.962;2023-07-13T03:25:50;16.70;99.90
4749;DHT22;2388;53.582;9.962;2023-07-13T03:28:16;16.70;99.90
4749;DHT22;2388;53.582;9.962;2023-07-13T03:30:42;16.70;99.90
4749;DHT22;2388;53.582;9.962;2023-07-13T03:33:08;16.70;99.90
4749;DHT22;2388;53.582;9.962;2023-07-13T03:35:34;16.70;99.90
4749;DHT22;2388;53.582;9.962;2023-07-13T03:38:00;16.70;99.90
4749;DHT22;2388;53.582;9.962;2023-07-13T03:40:27;16.60;99.90
4749;DHT22;2388;53.582;9.962;2023-07-13T03:42:53;16.60;99.90
4749;DHT22;2388;53.582;9.962;2023-07-13T03:45:19;16.60;99.90
4749;DHT22;2388;53.582;9.962;2023-07-13T03:47:45;16.60;99.90
4749;DHT22;2388;53.582;9.962;2023-07-13T03:50:11;16.60;99.90
4749;DHT22;2388;53.582;9.962;2023-07-13T03:52:36;16.60;99.90
4749;DHT22;2388;53.582;9.962;2023-07-13T03:55:02;16.60;99.90
4749;DHT22;2388;53.582;9.962;2023-07-13T03:57:28;16.60;99.90
4749;DHT22;2388;53.582;9.962;2023-07-13T03:59:53;16.60;99.90
4749;DHT22;2388;53.582;9.962;2023-07-13T04:02:19;16.60;99.90
4749;DHT22;2388;53.582;9.962;2023-07-13T04:04:44;16.50;99.90
4749;DHT22;2388;53.582;9.962;2023-07-13T04:07:10;16.50;99.90
4749;DHT22;2388;53.582;9.962;2023-07-13T04:09:35;16.50;99.90
4749;DHT22;2388;53.582;9.962;2023-07-13T04:12:01;16.50;99.90
4749;DHT22;2388;53.582;9.962;2023-07-13T04:14:27;16.50;99.90
4749;DHT22;2388;53.582;9.962;2023-07-13T04:16:52;16.50;99.90
4749;DHT22;2388;53.582;9.962;2023-07-13T04:19:20;16.50;99.90
4749;DHT22;2388;53.582;9.962;2023-07-13T04:21:45;16.50;99.90
4749;DHT22;2388;53.582;9.962;2023-07-13T04:24:11;16.50;99.90
4749;DHT22;2388;53.582;9.962;2023-07-13T04:26:37;16.50;99.90
4749;DHT22;2388;53.582;9.962;2023-07-13T04:29:04;16.50;99.90
4749;DHT22;2388;53.582;9.962;2023-07-13T04:31:30;16.50;99.90
4749;DHT22;2388;53.582;9.962;2023-07-13T04:33:56;16.50;99.90
4749;DHT22;2388;53.582;9.962;2023-07-13T04:36:21;16.60;99.90
4749;DHT22;2388;53.582;9.962;2023-07-13T04:38:47;16.60;99.90
4749;DHT22;2388;53.582;9.962;2023-07-13T04:41:14;16.60;99.90
4749;DHT22;2388;53.582;9.962;2023-07-13T04:43:40;16.60;99.90
4749;DHT22;2388;53.582;9.962;2023-07-13T04:46:10;16.60;99.90
4749;DHT22;2388;53.582;9.962;2023-07-13T04:48:37;16.60;99.90
4749;DHT22;2388;53.582;9.962;2023-07-13T04:51:02;16.70;99.90
4749;DHT22;2388;53.582;9.962;2023-07-13T04:53:29;16.60;99.90
4749;DHT22;2388;53.582;9.962;2023-07-13T04:55:55;16.70;99.90
4749;DHT22;2388;53.582;9.962;2023-07-13T04:58:21;16.70;99.90
4749;DHT22;2388;53.582;9.962;2023-07-13T05:00:48;16.60;99.90
4749;DHT22;2388;53.582;9.962;2023-07-13T05:03:13;16.60;99.90
4749;DHT22;2388;53.582;9.962;2023-07-13T05:05:39;16.70;99.90
4749;DHT22;2388;53.582;9.962;2023-07-13T05:08:04;16.70;99.90
4749;DHT22;2388;53.582;9.962;2023-07-13T05:10:30;16.70;99.90
4749;DHT22;2388;53.582;9.962;2023-07-13T05:12:55;16.70;99.90
4749;DHT22;2388;53.582;9.962;2023-07-13T05:15:22;16.70;99.90
4749;DHT22;2388;53.582;9.962;2023-07-13T05:17:48;16.70;99.90
4749;DHT22;2388;53.582;9.962;2023-07-13T05:20:15;16.70;99.90
4749;DHT22;2388;53.582;9.962;2023-07-13T05:22:41;16.80;99.90
4749;DHT22;2388;53.582;9.962;2023-07-13T05:25:07;16.80;99.90
4749;DHT22;2388;53.582;9.962;2023-07-13T05:27:36;16.90;99.90
4749;DHT22;2388;53.582;9.962;2023-07-13T05:30:03;16.90;99.90
4749;DHT22;2388;53.582;9.962;2023-07-13T05:32:29;17.00;99.90
4749;DHT22;2388;53.582;9.962;2023-07-13T05:34:54;17.00;99.90
4749;DHT22;2388;53.582;9.962;2023-07-13T05:37:20;17.00;99.90
4749;DHT22;2388;53.582;9.962;2023-07-13T05:39:45;17.00;99.90
4749;DHT22;2388;53.582;9.962;2023-07-13T05:42:11;17.00;99.90
4749;DHT22;2388;53.582;9.962;2023-07-13T05:44:36;17.00;99.90
4749;DHT22;2388;53.582;9.962;2023-07-13T05:47:02;17.00;99.90
4749;DHT22;2388;53.582;9.962;2023-07-13T05:49:27;16.90;99.90
4749;DHT22;2388;53.582;9.962;2023-07-13T05:51:55;17.00;99.90
4749;DHT22;2388;53.582;9.962;2023-07-13T05:54:21;16.90;99.90
4749;DHT22;2388;53.582;9.962;2023-07-13T05:56:46;16.90;99.90
4749;DHT22;2388;53.582;9.962;2023-07-13T05:59:12;16.90;99.90
4749;DHT22;2388;53.582;9.962;2023-07-13T06:01:37;16.90;99.90
4749;DHT22;2388;53.582;9.962;2023-07-13T06:04:03;16.90;99.90
4749;DHT22;2388;53.582;9.962;2023-07-13T06:06:28;16.90;99.90
4749;DHT22;2388;53.582;9.962;2023-07-13T06:08:54;16.90;99.90
4749;DHT22;2388;53.582;9.962;2023-07-13T06:11:22;17.00;99.90
4749;DHT22;2388;53.582;9.962;2023-07-13T06:13:48;17.00;99.90
4749;DHT22;2388;53.582;9.962;2023-07-13T06:16:14;17.00;99.90
4749;DHT22;2388;53.582;9.962;2023-07-13T06:18:40;17.00;99.90
4749;DHT22;2388;53.582;9.962;2023-07-13T06:21:14;17.10;99.90
4749;DHT22;2388;53.582;9.962;2023-07-13T06:23:40;17.10;99.90
4749;DHT22;2388;53.582;9.962;2023-07-13T06:26:06;17.00;99.90
4749;DHT22;2388;53.582;9.962;2023-07-13T06:28:32;17.00;99.90
4749;DHT22;2388;53.582;9.962;2023-07-13T06:30:58;17.00;99.90
4749;DHT22;2388;53.582;9.962;2023-07-13T06:33:24;17.10;99.90
4749;DHT22;2388;53.582;9.962;2023-07-13T06:35:50;17.10;99.90
4749;DHT22;2388;53.582;9.962;2023-07-13T06:38:15;17.10;99.90
4749;DHT22;2388;53.582;9.962;2023-07-13T06:40:41;17.10;99.90
4749;DHT22;2388;53.582;9.962;2023-07-13T06:43:07;17.10;99.90
4749;DHT22;2388;53.582;9.962;2023-07-13T06:45:41;17.20;99.90
4749;DHT22;2388;53.582;9.962;2023-07-13T06:48:07;17.30;99.90
4749;DHT22;2388;53.582;9.962;2023-07-13T06:50:33;17.30;99.90
4749;DHT22;2388;53.582;9.962;2023-07-13T06:52:59;17.30;99.90
4749;DHT22;2388;53.582;9.962;2023-07-13T06:55:25;17.30;99.90
4749;DHT22;2388;53.582;9.962;2023-07-13T06:57:50;17.30;99.90
4749;DHT22;2388;53.582;9.962;2023-07-13T07:00:16;17.30;99.90
4749;DHT22;2388;53.582;9.962;2023-07-13T07:02:42;17.40;99.90
4749;DHT22;2388;53.582;9.962;2023-07-13T07:05:07;17.40;99.90
4749;DHT22;2388;53.582;9.962;2023-07-13T07:07:33;17.40;99.90
4749;DHT22;2388;53.582;9.962;2023-07-13T07:09:58;17.40;99.90
4749;DHT22;2388;53.582;9.962;2023-07-13T07:12:24;17.40;99.90
4749;DHT22;2388;53.582;9.962;2023-07-13T07:14:49;17.50;99.90
4749;DHT22;2388;53.582;9.962;2023-07-13T07:17:15;17.50;99.90
4749;DHT22;2388;53.582;9.962;2023-07-13T07:19:40;17.50;99.90
4749;DHT22;2388;53.582;9.962;2023-07-13T07:22:06;17.50;99.90
4749;DHT22;2388;53.582;9.962;2023-07-13T07:24:32;17.60;99.90
4749;DHT22;2388;53.582;9.962;2023-07-13T07:26:58;17.70;99.90
4749;DHT22;2388;53.582;9.962;2023-07-13T07:29:23;17.70;99.90
4749;DHT22;2388;53.582;9.962;2023-07-13T07:31:52;17.80;99.90
4749;DHT22;2388;53.582;9.962;2023-07-13T07:34:17;17.90;99.90
4749;DHT22;2388;53.582;9.962;2023-07-13T07:36:43;17.90;99.90
4749;DHT22;2388;53.582;9.962;2023-07-13T07:39:08;18.00;99.90
4749;DHT22;2388;53.582;9.962;2023-07-13T07:41:34;18.00;99.90
4749;DHT22;2388;53.582;9.962;2023-07-13T07:43:59;18.10;99.90
4749;DHT22;2388;53.582;9.962;2023-07-13T07:46:25;18.20;99.90
4749;DHT22;2388;53.582;9.962;2023-07-13T07:48:50;18.20;99.90
4749;DHT22;2388;53.582;9.962;2023-07-13T07:51:16;18.30;99.90
4749;DHT22;2388;53.582;9.962;2023-07-13T07:53:41;18.30;99.90
4749;DHT22;2388;53.582;9.962;2023-07-13T07:56:07;18.30;99.90
4749;DHT22;2388;53.582;9.962;2023-07-13T07:58:32;18.30;99.90
4749;DHT22;2388;53.582;9.962;2023-07-13T08:01:07;18.40;99.90
4749;DHT22;2388;53.582;9.962;2023-07-13T08:03:34;18.50;99.90
4749;DHT22;2388;53.582;9.962;2023-07-13T08:05:59;18.50;99.90
4749;DHT22;2388;53.582;9.962;2023-07-13T08:08:25;18.60;99.90
4749;DHT22;2388;53.582;9.962;2023-07-13T08:10:51;18.60;99.90
4749;DHT22;2388;53.582;9.962;2023-07-13T08:13:16;18.70;99.90
4749;DHT22;2388;53.582;9.962;2023-07-13T08:15:42;18.70;99.90
4749;DHT22;2388;53.582;9.962;2023-07-13T08:18:07;18.80;99.90
4749;DHT22;2388;53.582;9.962;2023-07-13T08:20:37;18.90;99.90
4749;DHT22;2388;53.582;9.962;2023-07-13T08:23:03;18.90;99.90
4749;DHT22;2388;53.582;9.962;2023-07-13T08:25:29;19.00;99.90
4749;DHT22;2388;53.582;9.962;2023-07-13T08:27:54;19.00;99.90
4749;DHT22;2388;53.582;9.962;2023-07-13T08:30:20;19.10;99.90
4749;DHT22;2388;53.582;9.962;2023-07-13T08:32:45;19.10;99.90
4749;DHT22;2388;53.582;9.962;2023-07-13T08:35:11;19.10;99.90
4749;DHT22;2388;53.582;9.962;2023-07-13T08:37:37;19.10;99.90
4749;DHT22;2388;53.582;9.962;2023-07-13T08:40:02;19.10;99.90
4749;DHT22;2388;53.582;9.962;2023-07-13T08:42:54;19.10;99.90
4749;DHT22;2388;53.582;9.962;2023-07-13T08:48:19;19.10;99.90
4749;DHT22;2388;53.582;9.962;2023-07-13T08:53:46;19.00;99.90
4749;DHT22;2388;53.582;9.962;2023-07-13T08:56:19;19.00;99.90
4749;DHT22;2388;53.582;9.962;2023-07-13T08:58:48;19.10;99.90
4749;DHT22;2388;53.582;9.962;2023-07-13T09:01:40;19.20;99.90
4749;DHT22;2388;53.582;9.962;2023-07-13T09:04:18;19.30;99.90
4749;DHT22;2388;53.582;9.962;2023-07-13T09:14:52;19.60;99.90
4749;DHT22;2388;53.582;9.962;2023-07-13T09:17:24;19.70;99.90
4749;DHT22;2388;53.582;9.962;2023-07-13T09:19:57;19.70;99.90
4749;DHT22;2388;53.582;9.962;2023-07-13T09:22:24;19.70;99.90
4749;DHT22;2388;53.582;9.962;2023-07-13T09:24:58;19.70;99.90
4749;DHT22;2388;53.582;9.962;2023-07-13T09:27:39;19.70;99.90
4749;DHT22;2388;53.582;9.962;2023-07-13T09:32:43;19.80;99.90
4749;DHT22;2388;53.582;9.962;2023-07-13T09:35:16;19.90;99.90
4749;DHT22;2388;53.582;9.962;2023-07-13T09:37:43;20.00;99.90
4749;DHT22;2388;53.582;9.962;2023-07-13T09:40:17;20.00;99.90
4749;DHT22;2388;53.582;9.962;2023-07-13T09:42:44;20.10;99.90
4749;DHT22;2388;53.582;9.962;2023-07-13T09:45:10;20.10;99.90
4749;DHT22;2388;53.582;9.962;2023-07-13T09:47:40;20.00;99.90
4749;DHT22;2388;53.582;9.962;2023-07-13T09:50:15;20.00;99.90
4749;DHT22;2388;53.582;9.962;2023-07-13T09:52:47;20.00;99.90
4749;DHT22;2388;53.582;9.962;2023-07-13T09:55:31;20.00;99.90
4749;DHT22;2388;53.582;9.962;2023-07-13T09:57:57;19.90;99.90
4749;DHT22;2388;53.582;9.962;2023-07-13T10:00:28;19.90;99.90
4749;DHT22;2388;53.582;9.962;2023-07-13T10:03:03;20.00;99.90
4749;DHT22;2388;53.582;9.962;2023-07-13T10:05:37;20.20;99.90
4749;DHT22;2388;53.582;9.962;2023-07-13T10:08:04;20.20;99.90
4749;DHT22;2388;53.582;9.962;2023-07-13T10:10:32;20.20;99.90
4749;DHT22;2388;53.582;9.962;2023-07-13T10:12:58;20.30;99.90
4749;DHT22;2388;53.582;9.962;2023-07-13T10:15:25;20.00;99.90
4749;DHT22;2388;53.582;9.962;2023-07-13T10:17:52;20.30;99.90
4749;DHT22;2388;53.582;9.962;2023-07-13T10:20:18;20.40;99.90
4749;DHT22;2388;53.582;9.962;2023-07-13T10:22:57;20.40;99.90
4749;DHT22;2388;53.582;9.962;2023-07-13T10:25:26;20.50;99.90
4749;DHT22;2388;53.582;9.962;2023-07-13T10:27:58;20.40;99.90
4749;DHT22;2388;53.582;9.962;2023-07-13T10:30:29;20.50;99.90
4749;DHT22;2388;53.582;9.962;2023-07-13T10:33:00;20.50;99.90
4749;DHT22;2388;53.582;9.962;2023-07-13T10:35:26;20.60;99.90
4749;DHT22;2388;53.582;9.962;2023-07-13T10:38:05;20.60;99.90
4749;DHT22;2388;53.582;9.962;2023-07-13T10:40:39;20.60;99.90
4749;DHT22;2388;53.582;9.962;2023-07-13T10:43:19;20.70;99.90
4749;DHT22;2388;53.582;9.962;2023-07-13T10:45:46;20.70;99.90
4749;DHT22;2388;53.582;9.962;2023-07-13T10:48:15;20.70;99.90
4749;DHT22;2388;53.582;9.962;2023-07-13T10:50:44;20.80;99.90
4749;DHT22;2388;53.582;9.962;2023-07-13T10:53:42;20.90;99.90
4749;DHT22;2388;53.582;9.962;2023-07-13T10:58:42;21.00;99.90
4749;DHT22;2388;53.582;9.962;2023-07-13T11:01:18;21.10;99.90
4749;DHT22;2388;53.582;9.962;2023-07-13T11:08:57;21.30;99.90
4749;DHT22;2388;53.582;9.962;2023-07-13T11:11:33;21.30;99.90
4749;DHT22;2388;53.582;9.962;2023-07-13T11:14:05;21.30;99.90
4749;DHT22;2388;53.582;9.962;2023-07-13T11:16:49;21.30;99.90
4749;DHT22;2388;53.582;9.962;2023-07-13T11:24:52;21.40;99.90
4749;DHT22;2388;53.582;9.962;2023-07-13T11:27:41;21.40;99.90
4749;DHT22;2388;53.582;9.962;2023-07-13T11:41:07;21.80;99.90
4749;DHT22;2388;53.582;9.962;2023-07-13T11:43:38;21.60;99.90
4749;DHT22;2388;53.582;9.962;2023-07-13T11:46:24;21.60;99.90
4749;DHT22;2388;53.582;9.962;2023-07-13T11:48:51;21.70;99.90
4749;DHT22;2388;53.582;9.962;2023-07-13T11:51:33;21.80;99.90
4749;DHT22;2388;53.582;9.962;2023-07-13T11:54:14;21.80;99.90
4749;DHT22;2388;53.582;9.962;2023-07-13T11:56:41;21.60;99.90
4749;DHT22;2388;53.582;9.962;2023-07-13T11:59:10;21.60;99.90
4749;DHT22;2388;53.582;9.962;2023-07-13T12:01:42;21.50;99.90
4749;DHT22;2388;53.582;9.962;2023-07-13T12:04:19;21.50;99.90
4749;DHT22;2388;53.582;9.962;2023-07-13T12:06:46;21.50;99.90
4749;DHT22;2388;53.582;9.962;2023-07-13T12:09:14;21.50;99.90
4749;DHT22;2388;53.582;9.962;2023-07-13T12:11:43;21.50;99.90
4749;DHT22;2388;53.582;9.962;2023-07-13T12:14:17;21.40;99.90
4749;DHT22;2388;53.582;9.962;2023-07-13T12:16:43;21.30;99.90
4749;DHT22;2388;53.582;9.962;2023-07-13T12:19:18;21.00;99.90
4749;DHT22;2388;53.582;9.962;2023-07-13T12:21:45;20.50;99.90
4749;DHT22;2388;53.582;9.962;2023-07-13T12:24:19;20.00;99.90
4749;DHT22;2388;53.582;9.962;2023-07-13T12:26:52;19.60;99.90
4749;DHT22;2388;53.582;9.962;2023-07-13T12:29:18;19.20;99.90
4749;DHT22;2388;53.582;9.962;2023-07-13T12:31:45;19.00;99.90
4749;DHT22;2388;53.582;9.962;2023-07-13T12:34:19;18.90;99.90
4749;DHT22;2388;53.582;9.962;2023-07-13T12:39:26;18.70;99.90
4749;DHT22;2388;53.582;9.962;2023-07-13T12:41:54;18.70;99.90
4749;DHT22;2388;53.582;9.962;2023-07-13T12:44:40;18.80;99.90
4749;DHT22;2388;53.582;9.962;2023-07-13T12:47:12;19.00;99.90
4749;DHT22;2388;53.582;9.962;2023-07-13T12:49:42;19.20;99.90
4749;DHT22;2388;53.582;9.962;2023-07-13T12:52:31;19.40;99.90
4749;DHT22;2388;53.582;9.962;2023-07-13T12:55:14;19.80;99.90
4749;DHT22;2388;53.582;9.962;2023-07-13T12:57:49;20.00;99.90
4749;DHT22;2388;53.582;9.962;2023-07-13T13:00:24;20.30;99.90
4749;DHT22;2388;53.582;9.962;2023-07-13T13:02:51;20.30;99.90
4749;DHT22;2388;53.582;9.962;2023-07-13T13:05:18;20.30;99.90
4749;DHT22;2388;53.582;9.962;2023-07-13T13:07:43;20.00;99.90
4749;DHT22;2388;53.582;9.962;2023-07-13T13:10:13;19.70;99.90
4749;DHT22;2388;53.582;9.962;2023-07-13T13:12:39;19.50;99.90
4749;DHT22;2388;53.582;9.962;2023-07-13T13:15:08;19.30;99.90
4749;DHT22;2388;53.582;9.962;2023-07-13T13:17:33;19.10;99.90
4749;DHT22;2388;53.582;9.962;2023-07-13T13:19:59;19.10;99.90
4749;DHT22;2388;53.582;9.962;2023-07-13T13:22:25;19.10;99.90
4749;DHT22;2388;53.582;9.962;2023-07-13T13:24:50;19.20;99.90
4749;DHT22;2388;53.582;9.962;2023-07-13T13:27:18;19.30;99.90
4749;DHT22;2388;53.582;9.962;2023-07-13T13:29:45;19.30;99.90
4749;DHT22;2388;53.582;9.962;2023-07-13T13:32:14;19.20;99.90
4749;DHT22;2388;53.582;9.962;2023-07-13T13:34:40;19.20;99.90
4749;DHT22;2388;53.582;9.962;2023-07-13T13:37:19;19.20;99.90
4749;DHT22;2388;53.582;9.962;2023-07-13T13:39:46;19.30;99.90
4749;DHT22;2388;53.582;9.962;2023-07-13T13:42:12;19.30;99.90
4749;DHT22;2388;53.582;9.962;2023-07-13T13:44:37;19.40;99.90
4749;DHT22;2388;53.582;9.962;2023-07-13T13:47:03;19.40;99.90
4749;DHT22;2388;53.582;9.962;2023-07-13T13:49:29;19.50;99.90
4749;DHT22;2388;53.582;9.962;2023-07-13T13:51:56;19.50;99.90
4749;DHT22;2388;53.582;9.962;2023-07-13T13:54:23;19.60;99.90
4749;DHT22;2388;53.582;9.962;2023-07-13T13:56:50;19.50;99.90
4749;DHT22;2388;53.582;9.962;2023-07-13T13:59:17;19.60;99.90
4749;DHT22;2388;53.582;9.962;2023-07-13T14:01:44;19.60;99.90
4749;DHT22;2388;53.582;9.962;2023-07-13T14:04:16;19.60;99.90
4749;DHT22;2388;53.582;9.962;2023-07-13T14:06:43;19.60;99.90
4749;DHT22;2388;53.582;9.962;2023-07-13T14:09:14;19.60;99.90
4749;DHT22;2388;53.582;9.962;2023-07-13T14:11:40;19.60;99.90
4749;DHT22;2388;53.582;9.962;2023-07-13T14:14:14;19.70;99.90
4749;DHT22;2388;53.582;9.962;2023-07-13T14:16:41;19.80;99.90
4749;DHT22;2388;53.582;9.962;2023-07-13T14:19:10;19.80;99.90
4749;DHT22;2388;53.582;9.962;2023-07-13T14:21:36;19.80;99.90
4749;DHT22;2388;53.582;9.962;2023-07-13T14:24:02;19.70;99.90
4749;DHT22;2388;53.582;9.962;2023-07-13T14:26:28;19.60;99.90
4749;DHT22;2388;53.582;9.962;2023-07-13T14:28:57;19.50;99.90
4749;DHT22;2388;53.582;9.962;2023-07-13T14:31:24;19.50;99.90
4749;DHT22;2388;53.582;9.962;2023-07-13T14:33:51;19.60;99.90
4749;DHT22;2388;53.582;9.962;2023-07-13T14:36:43;19.70;99.90
4749;DHT22;2388;53.582;9.962;2023-07-13T14:39:18;19.80;99.90
4749;DHT22;2388;53.582;9.962;2023-07-13T14:41:44;19.90;99.90
4749;DHT22;2388;53.582;9.962;2023-07-13T14:44:30;19.80;99.90
4749;DHT22;2388;53.582;9.962;2023-07-13T14:47:03;19.80;99.90
4749;DHT22;2388;53.582;9.962;2023-07-13T14:49:34;19.70;99.90
4749;DHT22;2388;53.582;9.962;2023-07-13T14:52:15;19.70;99.90
4749;DHT22;2388;53.582;9.962;2023-07-13T14:54:41;19.70;99.90
4749;DHT22;2388;53.582;9.962;2023-07-13T14:57:19;19.70;99.90
4749;DHT22;2388;53.582;9.962;2023-07-13T14:59:46;19.70;99.90
4749;DHT22;2388;53.582;9.962;2023-07-13T15:02:34;19.60;99.90
4749;DHT22;2388;53.582;9.962;2023-07-13T15:05:01;19.60;99.90
4749;DHT22;2388;53.582;9.962;2023-07-13T15:07:26;19.60;99.90
4749;DHT22;2388;53.582;9.962;2023-07-13T15:09:52;19.70;99.90
4749;DHT22;2388;53.582;9.962;2023-07-13T15:12:18;19.70;99.90
4749;DHT22;2388;53.582;9.962;2023-07-13T15:14:44;19.70;99.90
4749;DHT22;2388;53.582;9.962;2023-07-13T15:17:35;19.70;99.90
4749;DHT22;2388;53.582;9.962;2023-07-13T15:20:04;19.60;99.90
4749;DHT22;2388;53.582;9.962;2023-07-13T15:22:31;19.70;99.90
4749;DHT22;2388;53.582;9.962;2023-07-13T15:24:57;19.70;99.90
4749;DHT22;2388;53.582;9.962;2023-07-13T15:27:22;19.60;99.90
4749;DHT22;2388;53.582;9.962;2023-07-13T15:29:48;19.60;99.90
4749;DHT22;2388;53.582;9.962;2023-07-13T15:32:13;19.60;99.90
4749;DHT22;2388;53.582;9.962;2023-07-13T15:34:39;19.50;99.90
4749;DHT22;2388;53.582;9.962;2023-07-13T15:37:14;19.50;99.90
4749;DHT22;2388;53.582;9.962;2023-07-13T15:39:40;19.50;99.90
4749;DHT22;2388;53.582;9.962;2023-07-13T15:42:13;19.60;99.90
4749;DHT22;2388;53.582;9.962;2023-07-13T15:44:39;19.60;99.90
4749;DHT22;2388;53.582;9.962;2023-07-13T15:47:05;19.60;99.90
4749;DHT22;2388;53.582;9.962;2023-07-13T15:49:32;19.60;99.90
4749;DHT22;2388;53.582;9.962;2023-07-13T15:51:57;19.70;99.90
4749;DHT22;2388;53.582;9.962;2023-07-13T15:54:23;19.70;99.90
4749;DHT22;2388;53.582;9.962;2023-07-13T15:56:55;19.70;99.90
4749;DHT22;2388;53.582;9.962;2023-07-13T15:59:21;19.70;99.90
4749;DHT22;2388;53.582;9.962;2023-07-13T16:01:46;19.80;99.90
4749;DHT22;2388;53.582;9.962;2023-07-13T16:04:14;19.70;99.90
4749;DHT22;2388;53.582;9.962;2023-07-13T16:06:41;19.80;99.90
4749;DHT22;2388;53.582;9.962;2023-07-13T16:09:08;19.80;99.90
4749;DHT22;2388;53.582;9.962;2023-07-13T16:11:38;19.80;99.90
4749;DHT22;2388;53.582;9.962;2023-07-13T16:14:04;19.90;99.90
4749;DHT22;2388;53.582;9.962;2023-07-13T16:16:34;19.80;99.90
4749;DHT22;2388;53.582;9.962;2023-07-13T16:19:02;19.90;99.90
4749;DHT22;2388;53.582;9.962;2023-07-13T16:21:34;19.90;99.90
4749;DHT22;2388;53.582;9.962;2023-07-13T16:24:01;19.90;99.90
4749;DHT22;2388;53.582;9.962;2023-07-13T16:26:37;19.90;99.90
4749;DHT22;2388;53.582;9.962;2023-07-13T16:29:15;19.80;99.90
4749;DHT22;2388;53.582;9.962;2023-07-13T16:31:43;19.80;99.90
4749;DHT22;2388;53.582;9.962;2023-07-13T16:34:19;19.80;99.90
4749;DHT22;2388;53.582;9.962;2023-07-13T16:36:45;19.80;99.90
4749;DHT22;2388;53.582;9.962;2023-07-13T16:39:12;19.70;99.90
4749;DHT22;2388;53.582;9.962;2023-07-13T16:41:38;19.70;99.90
4749;DHT22;2388;53.582;9.962;2023-07-13T16:44:13;19.70;99.90
4749;DHT22;2388;53.582;9.962;2023-07-13T16:46:41;19.70;99.90
4749;DHT22;2388;53.582;9.962;2023-07-13T16:49:21;19.70;99.90
4749;DHT22;2388;53.582;9.962;2023-07-13T16:51:48;19.70;99.90